Station Historical Data
Daily Summary for September 4, 2017 Units:  English    Metric   Both
« Previous Day
Next Day »
Daily Weekly Monthly Yearly Custom
  High: Low: Average:
Temperature: 87.9 °F 58.0 °F 71.3 °F
Dew Point: 66.8 °F 55.4 °F 61.4 °F
Humidity: 93% 43% 73%
Wind Speed: 1.0mph 0.0mph 0mph
Wind Gust: 5.0mph - -
Wind- - SW
Pressure: 30.13 in 30.00 in -
Precipitation: 0.00 in    
Historical Graphs
 
 
Tabular Data for September 4, 2017
Time Temperature Dew Point Pressure Wind Wind Speed Wind Gust Humidity Rainfall Rate (Hourly) solar Conditions
00:00 63.8 °F 59.2 °F 30.12 in Calm     85% 0.00 in WeatherDisplay:10.37 W/m2 CLR
00:10 63.5 °F 58.9 °F 30.12 in Calm     85% 0.00 in WeatherDisplay:10.37 W/m2 CLR
00:15 63.4 °F 58.8 °F 30.12 in Calm     85% 0.00 in WeatherDisplay:10.37 W/m2 CLR
00:20 63.3 °F 58.7 °F 30.12 in Calm     85% 0.00 in WeatherDisplay:10.37 W/m2 CLR
00:25 63.2 °F 58.9 °F 30.12 in Calm     86% 0.00 in WeatherDisplay:10.37 W/m2 CLR
00:30 63.0 °F 58.5 °F 30.12 in Calm     85% 0.00 in WeatherDisplay:10.37 W/m2 CLR
00:35 63.0 °F 58.7 °F 30.12 in Calm     86% 0.00 in WeatherDisplay:10.37 W/m2 CLR
00:40 62.8 °F 58.5 °F 30.11 in Calm     86% 0.00 in WeatherDisplay:10.37 W/m2 CLR
00:45 62.7 °F 58.5 °F 30.12 in Calm     86% 0.00 in WeatherDisplay:10.37 W/m2 CLR
00:50 62.7 °F 58.5 °F 30.12 in Calm     86% 0.00 in WeatherDisplay:10.37 W/m2 CLR
00:55 62.6 °F 58.4 °F 30.12 in Calm     86% 0.00 in WeatherDisplay:10.37 W/m2 CLR
01:00 62.5 °F 58.3 °F 30.11 in Calm     86% 0.00 in WeatherDisplay:10.37 W/m2 CLR
01:05 62.4 °F 58.1 °F 30.11 in Calm     86% 0.00 in WeatherDisplay:10.37 W/m2 CLR
01:10 62.2 °F 58.3 °F 30.11 in Calm     87% 0.00 in WeatherDisplay:10.37 W/m2 CLR
01:15 62.1 °F 58.2 °F 30.11 in Calm     87% 0.00 in WeatherDisplay:10.37 W/m2 CLR
01:20 62.0 °F 58.1 °F 30.11 in Calm     87% 0.00 in WeatherDisplay:10.37 W/m2 CLR
01:25 61.9 °F 58.0 °F 30.11 in Calm     87% 0.00 in WeatherDisplay:10.37 W/m2 CLR
01:30 61.8 °F 57.9 °F 30.11 in Calm     87% 0.00 in WeatherDisplay:10.37 W/m2 CLR
01:35 61.7 °F 57.8 °F 30.11 in Calm     87% 0.00 in WeatherDisplay:10.37 W/m2 CLR
01:40 61.7 °F 58.1 °F 30.11 in Calm     88% 0.00 in WeatherDisplay:10.37 W/m2 CLR
01:45 61.6 °F 58.0 °F 30.11 in Calm     88% 0.00 in WeatherDisplay:10.37 W/m2 CLR
01:50 61.5 °F 57.9 °F 30.11 in Calm     88% 0.00 in WeatherDisplay:10.37 W/m2 CLR
01:55 61.4 °F 57.8 °F 30.11 in Calm     88% 0.00 in WeatherDisplay:10.37 W/m2 CLR
02:00 61.4 °F 57.8 °F 30.11 in Calm     88% 0.00 in WeatherDisplay:10.37 W/m2 CLR
02:10 61.2 °F 57.6 °F 30.11 in Calm     88% 0.00 in WeatherDisplay:10.37 W/m2 CLR
02:15 61.2 °F 57.9 °F 30.11 in Calm     89% 0.00 in WeatherDisplay:10.37 W/m2 CLR
02:20 61.1 °F 57.6 °F 30.11 in Calm     88% 0.00 in WeatherDisplay:10.37 W/m2 CLR
02:25 61.1 °F 57.5 °F 30.11 in Calm     88% 0.00 in WeatherDisplay:10.37 W/m2 CLR
02:30 60.9 °F 57.3 °F 30.10 in Calm     88% 0.00 in WeatherDisplay:10.37 W/m2 CLR
02:40 60.7 °F 57.1 °F 30.10 in Calm     88% 0.00 in WeatherDisplay:10.37 W/m2 CLR
02:45 60.5 °F 56.9 °F 30.10 in Calm     88% 0.00 in WeatherDisplay:10.37 W/m2 CLR
02:50 60.4 °F 57.1 °F 30.10 in Calm     89% 0.00 in WeatherDisplay:10.37 W/m2 CLR
02:55 60.3 °F 57.0 °F 30.10 in Calm     89% 0.00 in WeatherDisplay:10.37 W/m2 CLR
03:00 60.2 °F 57.0 °F 30.10 in Calm     89% 0.00 in WeatherDisplay:10.37 W/m2 CLR
03:05 60.1 °F 56.8 °F 30.11 in Calm     89% 0.00 in WeatherDisplay:10.37 W/m2 CLR
03:10 60.1 °F 56.8 °F 30.10 in Calm     89% 0.00 in WeatherDisplay:10.37 W/m2 CLR
03:15 60.0 °F 56.7 °F 30.10 in Calm     89% 0.00 in WeatherDisplay:10.37 W/m2 CLR
03:20 60.0 °F 56.7 °F 30.10 in Calm     89% 0.00 in WeatherDisplay:10.37 W/m2 CLR
03:25 59.8 °F 56.6 °F 30.10 in Calm     89% 0.00 in WeatherDisplay:10.37 W/m2 CLR
03:30 59.7 °F 56.5 °F 30.10 in Calm     89% 0.00 in WeatherDisplay:10.37 W/m2 CLR
03:35 59.8 °F 56.9 °F 30.10 in Calm     90% 0.00 in WeatherDisplay:10.37 W/m2 CLR
03:40 59.7 °F 56.8 °F 30.10 in Calm     90% 0.00 in WeatherDisplay:10.37 W/m2 CLR
03:45 59.6 °F 56.7 °F 30.10 in Calm     90% 0.00 in WeatherDisplay:10.37 W/m2 CLR
03:50 59.6 °F 56.7 °F 30.10 in Calm     90% 0.00 in WeatherDisplay:10.37 W/m2 CLR
03:55 59.6 °F 56.6 °F 30.10 in Calm     90% 0.00 in WeatherDisplay:10.37 W/m2 CLR
04:00 59.5 °F 56.6 °F 30.10 in Calm     90% 0.00 in WeatherDisplay:10.37 W/m2 CLR
04:05 59.5 °F 56.6 °F 30.10 in Calm     90% 0.00 in WeatherDisplay:10.37 W/m2 CLR
04:10 59.5 °F 56.6 °F 30.10 in Calm     90% 0.00 in WeatherDisplay:10.37 W/m2 CLR
04:15 59.5 °F 56.6 °F 30.10 in Calm     90% 0.00 in WeatherDisplay:10.37 W/m2 CLR
04:20 59.5 °F 56.5 °F 30.10 in Calm     90% 0.00 in WeatherDisplay:10.37 W/m2 CLR
04:25 59.4 °F 56.5 °F 30.10 in Calm     90% 0.00 in WeatherDisplay:10.37 W/m2 CLR
04:30 59.3 °F 56.4 °F 30.10 in Calm     90% 0.00 in WeatherDisplay:10.37 W/m2 CLR
04:35 59.3 °F 56.4 °F 30.09 in Calm     90% 0.00 in WeatherDisplay:10.37 W/m2 CLR
04:40 59.1 °F 56.2 °F 30.10 in Calm     90% 0.00 in WeatherDisplay:10.37 W/m2 CLR
04:45 59.1 °F 56.2 °F 30.10 in Calm     90% 0.00 in WeatherDisplay:10.37 W/m2 CLR
04:50 59.0 °F 56.1 °F 30.09 in Calm     90% 0.00 in WeatherDisplay:10.37 W/m2 CLR
04:55 58.9 °F 56.0 °F 30.09 in Calm     90% 0.00 in WeatherDisplay:10.37 W/m2 CLR
05:00 58.9 °F 56.0 °F 30.09 in Calm     90% 0.00 in WeatherDisplay:10.37 W/m2 CLR
05:05 58.8 °F 55.9 °F 30.09 in Calm     90% 0.00 in WeatherDisplay:10.37 W/m2 CLR
05:10 58.8 °F 55.9 °F 30.09 in Calm     90% 0.00 in WeatherDisplay:10.37 W/m2 CLR
05:15 58.7 °F 55.8 °F 30.09 in Calm     90% 0.00 in WeatherDisplay:10.37 W/m2 CLR
05:20 58.7 °F 56.1 °F 30.09 in Calm     91% 0.00 in WeatherDisplay:10.37 W/m2 CLR
05:25 58.6 °F 55.7 °F 30.09 in Calm     90% 0.00 in WeatherDisplay:10.37 W/m2 CLR
05:30 58.6 °F 56.0 °F 30.09 in Calm     91% 0.00 in WeatherDisplay:10.37 W/m2 CLR
05:35 58.6 °F 56.0 °F 30.10 in Calm     91% 0.00 in WeatherDisplay:10.37 W/m2 CLR
05:40 58.5 °F 55.9 °F 30.10 in Calm     91% 0.00 in WeatherDisplay:10.37 W/m2 CLR
05:45 58.5 °F 55.9 °F 30.10 in Calm     91% 0.00 in WeatherDisplay:10.37 W/m2 CLR
05:50 58.5 °F 55.9 °F 30.10 in Calm     91% 0.00 in WeatherDisplay:10.37 W/m2 CLR
05:55 58.4 °F 55.8 °F 30.10 in Calm     91% 0.00 in WeatherDisplay:10.37 W/m2 CLR
06:00 58.3 °F 55.7 °F 30.10 in Calm     91% 0.00 in WeatherDisplay:10.37 W/m2 CLR
06:05 58.4 °F 55.8 °F 30.10 in Calm     91% 0.00 in WeatherDisplay:10.37 W/m2 CLR
06:10 58.4 °F 55.7 °F 30.10 in Calm     91% 0.00 in WeatherDisplay:10.37 W/m2 CLR
06:15 58.3 °F 55.7 °F 30.10 in Calm     91% 0.00 in WeatherDisplay:10.37 W/m2 CLR
06:20 58.3 °F 55.7 °F 30.10 in Calm     91% 0.00 in WeatherDisplay:10.37 W/m2 CLR
06:25 58.3 °F 55.7 °F 30.10 in Calm     91% 0.00 in WeatherDisplay:10.37 W/m2 CLR
06:30 58.4 °F 55.8 °F 30.10 in Calm     91% 0.00 in WeatherDisplay:10.37 W/m2 CLR
06:40 58.2 °F 55.6 °F 30.11 in Calm     91% 0.00 in WeatherDisplay:10.37 W/m2 CLR
06:45 58.2 °F 55.6 °F 30.11 in Calm     91% 0.00 in WeatherDisplay:10.37 W/m2 CLR
06:50 58.2 °F 55.6 °F 30.11 in Calm     91% 0.00 in WeatherDisplay:10.37 W/m2 CLR
06:55 58.2 °F 55.6 °F 30.11 in Calm     91% 0.00 in WeatherDisplay:10.37 W/m2 CLR
07:00 58.1 °F 55.5 °F 30.11 in Calm     91% 0.00 in WeatherDisplay:10.37 W/m2 CLR
07:05 58.0 °F 55.4 °F 30.11 in Calm     91% 0.00 in WeatherDisplay:10.37 W/m2 CLR
07:10 58.0 °F 55.7 °F 30.11 in Calm     92% 0.00 in WeatherDisplay:10.37 W/m2 CLR
07:15 58.1 °F 55.8 °F 30.11 in Calm     92% 0.00 in WeatherDisplay:10.37 W/m2 CLR
07:20 58.1 °F 55.8 °F 30.11 in Calm     92% 0.00 in WeatherDisplay:10.37 W/m2 FEW
07:25 58.0 °F 55.7 °F 30.11 in Calm     92% 0.00 in WeatherDisplay:10.37 W/m2 FEW
07:30 58.0 °F 55.7 °F 30.11 in Calm     92% 0.00 in WeatherDisplay:10.37 W/m2 FEW
07:40 58.3 °F 56.0 °F 30.12 in Calm     92% 0.00 in WeatherDisplay:10.37 W/m2 FEW
07:45 58.4 °F 56.0 °F 30.12 in Calm     92% 0.00 in WeatherDisplay:10.37 W/m2 FEW
07:50 58.7 °F 56.4 °F 30.12 in Calm     92% 0.00 in WeatherDisplay:10.37 W/m2 FEW
07:55 59.1 °F 57.1 °F 30.12 in Calm     93% 0.00 in WeatherDisplay:10.37 W/m2 FEW
08:00 59.4 °F 57.1 °F 30.12 in Calm     92% 0.00 in WeatherDisplay:10.37 W/m2 FEW
08:05 60.0 °F 57.9 °F 30.12 in Calm     93% 0.00 in WeatherDisplay:10.37 W/m2 FEW
08:10 60.4 °F 58.4 °F 30.12 in Calm     93% 0.00 in WeatherDisplay:10.37 W/m2 FEW
08:15 60.9 °F 58.6 °F 30.12 in Calm     92% 0.00 in WeatherDisplay:10.37 W/m2 FEW
08:25 61.9 °F 59.2 °F 30.12 in Calm     91% 0.00 in WeatherDisplay:10.37 W/m2 FEW
08:30 62.7 °F 59.8 °F 30.13 in Calm     90% 0.00 in WeatherDisplay:10.37 W/m2 FEW
08:35 63.2 °F 59.9 °F 30.12 in Calm     89% 0.00 in WeatherDisplay:10.37 W/m2 FEW
08:40 63.6 °F 59.9 °F 30.12 in Calm     88% 0.00 in WeatherDisplay:10.37 W/m2 FEW
08:45 63.8 °F 60.2 °F 30.12 in Calm     88% 0.00 in WeatherDisplay:10.37 W/m2 FEW
08:50 64.0 °F 60.1 °F 30.13 in Calm     87% 0.00 in WeatherDisplay:10.37 W/m2 FEW
08:55 64.2 °F 60.2 °F 30.13 in Calm     87% 0.00 in WeatherDisplay:10.37 W/m2 FEW
09:00 64.4 °F 60.4 °F 30.13 in Calm     87% 0.00 in WeatherDisplay:10.37 W/m2 FEW
09:10 65.0 °F 60.4 °F 30.13 in Calm     85% 0.00 in WeatherDisplay:10.37 W/m2 FEW
09:15 65.4 °F 61.1 °F 30.13 in Calm     86% 0.00 in WeatherDisplay:10.37 W/m2 FEW
09:20 65.9 °F 61.3 °F 30.13 in Calm     85% 0.00 in WeatherDisplay:10.37 W/m2 -DZ
09:25 66.5 °F 61.8 °F 30.13 in Calm     85% 0.00 in WeatherDisplay:10.37 W/m2 -DZ
09:30 66.9 °F 61.9 °F 30.13 in Calm     84% 0.00 in WeatherDisplay:10.37 W/m2 -DZ
09:35 67.4 °F 60.3 °F 30.13 in Calm     78% 0.00 in WeatherDisplay:10.37 W/m2 -DZ
09:40 68.3 °F 61.6 °F 30.13 in Calm     79% 0.00 in WeatherDisplay:10.37 W/m2 -DZ
09:45 69.2 °F 61.6 °F 30.13 in Calm     77% 0.00 in WeatherDisplay:10.37 W/m2 -DZ
09:50 69.9 °F 62.0 °F 30.13 in Calm     76% 0.00 in WeatherDisplay:10.37 W/m2 -DZ
09:55 70.8 °F 62.5 °F 30.13 in Calm     75% 0.00 in WeatherDisplay:10.37 W/m2 -DZ
10:00 71.8 °F 63.0 °F 30.13 in Calm     74% 0.00 in WeatherDisplay:10.37 W/m2 -DZ
10:05 72.5 °F 60.9 °F 30.13 in Calm     67% 0.00 in WeatherDisplay:10.37 W/m2 -DZ
10:10 72.9 °F 61.7 °F 30.13 in Calm     68% 0.00 in WeatherDisplay:10.37 W/m2 -DZ
10:15 73.4 °F 62.6 °F 30.13 in Calm   1.0 mph 69% 0.00 in WeatherDisplay:10.37 W/m2 -DZ
10:20 73.7 °F 61.7 °F 30.13 in Calm     66% 0.00 in WeatherDisplay:10.37 W/m2 FEW
10:25 74.2 °F 62.5 °F 30.13 in Calm   1.0 mph 67% 0.00 in WeatherDisplay:10.37 W/m2 FEW
10:35 75.1 °F 63.4 °F 30.13 in Calm     67% 0.00 in WeatherDisplay:10.37 W/m2 FEW
10:40 75.5 °F 62.5 °F 30.13 in Calm   1.0 mph 64% 0.00 in WeatherDisplay:10.37 W/m2 FEW
10:45 76.2 °F 63.1 °F 30.13 in Calm     64% 0.00 in WeatherDisplay:10.37 W/m2 FEW
10:50 76.7 °F 62.3 °F 30.13 in NW 1.0 mph 2.0 mph 61% 0.00 in WeatherDisplay:10.37 W/m2 FEW
10:55 77.1 °F 62.1 °F 30.13 in SW 1.0 mph 2.0 mph 60% 0.00 in WeatherDisplay:10.37 W/m2 FEW
11:00 77.3 °F 62.3 °F 30.13 in Calm     60% 0.00 in WeatherDisplay:10.37 W/m2 FEW
11:05 77.7 °F 63.1 °F 30.13 in Calm   1.0 mph 61% 0.00 in WeatherDisplay:10.37 W/m2 FEW
11:10 77.9 °F 62.9 °F 30.13 in Calm   1.0 mph 60% 0.00 in WeatherDisplay:10.37 W/m2 FEW
11:15 78.0 °F 63.9 °F 30.13 in Calm   1.0 mph 62% 0.00 in WeatherDisplay:10.37 W/m2 FEW
11:20 78.2 °F 62.7 °F 30.13 in Calm   1.0 mph 59% 0.00 in WeatherDisplay:10.37 W/m2 FEW
11:25 78.5 °F 63.0 °F 30.13 in Calm   1.0 mph 59% 0.00 in WeatherDisplay:10.37 W/m2 FEW
11:30 79.2 °F 63.7 °F 30.13 in Calm   1.0 mph 59% 0.00 in WeatherDisplay:10.37 W/m2 FEW
11:40 79.6 °F 62.0 °F 30.13 in Calm   1.0 mph 55% 0.00 in WeatherDisplay:10.37 W/m2 FEW
11:45 79.9 °F 60.7 °F 30.13 in Calm   1.0 mph 52% 0.00 in WeatherDisplay:10.37 W/m2 FEW
11:50 80.6 °F 61.9 °F 30.13 in Calm   1.0 mph 53% 0.00 in WeatherDisplay:10.37 W/m2 FEW
11:55 81.3 °F 60.3 °F 30.13 in Calm     49% 0.00 in WeatherDisplay:10.37 W/m2 FEW
12:00 81.9 °F 61.4 °F 30.12 in Calm   2.0 mph 50% 0.00 in WeatherDisplay:10.37 W/m2 FEW
12:05 81.9 °F 61.4 °F 30.12 in Calm   2.0 mph 50% 0.00 in WeatherDisplay:10.37 W/m2 FEW
12:10 82.3 °F 59.4 °F 30.12 in Calm   1.0 mph 46% 0.00 in WeatherDisplay:10.37 W/m2 FEW
12:15 82.3 °F 61.8 °F 30.12 in Calm   1.0 mph 50% 0.00 in WeatherDisplay:10.37 W/m2 FEW
12:20 82.7 °F 62.2 °F 30.12 in Calm   1.0 mph 50% 0.00 in WeatherDisplay:10.37 W/m2 FEW
12:25 82.9 °F 60.6 °F 30.12 in Calm   2.0 mph 47% 0.00 in WeatherDisplay:10.37 W/m2 FEW
12:30 83.4 °F 63.9 °F 30.11 in SSW 1.0 mph 3.0 mph 52% 0.00 in WeatherDisplay:10.37 W/m2 FEW
12:35 83.5 °F 62.4 °F 30.11 in Calm   2.0 mph 49% 0.00 in WeatherDisplay:10.37 W/m2 FEW
12:40 83.7 °F 61.9 °F 30.11 in Calm   5.0 mph 48% 0.00 in WeatherDisplay:10.37 W/m2 FEW
12:45 84.2 °F 62.4 °F 30.11 in Calm   1.0 mph 48% 0.00 in WeatherDisplay:10.37 W/m2 FEW
12:50 84.7 °F 61.0 °F 30.11 in Calm   2.0 mph 45% 0.00 in WeatherDisplay:10.37 W/m2 FEW
12:55 85.0 °F 61.9 °F 30.11 in Calm   3.0 mph 46% 0.00 in WeatherDisplay:10.37 W/m2 FEW
13:00 85.0 °F 60.0 °F 30.10 in West 1.0 mph 3.0 mph 43% 0.00 in WeatherDisplay:10.37 W/m2 FEW
13:05 85.2 °F 61.5 °F 30.10 in Calm   1.0 mph 45% 0.00 in WeatherDisplay:10.37 W/m2 FEW
13:10 85.6 °F 61.2 °F 30.10 in Calm   2.0 mph 44% 0.00 in WeatherDisplay:10.37 W/m2 FEW
13:15 85.9 °F 62.7 °F 30.10 in Calm   1.0 mph 46% 0.00 in WeatherDisplay:10.37 W/m2 FEW
13:20 85.8 °F 62.0 °F 30.10 in Calm   3.0 mph 45% 0.00 in WeatherDisplay:10.37 W/m2 FEW
13:25 85.7 °F 62.6 °F 30.09 in Calm   1.0 mph 46% 0.00 in WeatherDisplay:10.37 W/m2 FEW
13:30 85.9 °F 63.3 °F 30.09 in Calm   2.0 mph 47% 0.00 in WeatherDisplay:10.37 W/m2 FEW
13:35 86.6 °F 63.9 °F 30.09 in Calm   1.0 mph 47% 0.00 in WeatherDisplay:10.37 W/m2 FEW
13:40 87.2 °F 63.3 °F 30.09 in Calm   1.0 mph 45% 0.00 in WeatherDisplay:10.37 W/m2 FEW
13:45 87.4 °F 62.8 °F 30.09 in West 1.0 mph 5.0 mph 44% 0.00 in WeatherDisplay:10.37 W/m2 FEW
13:50 86.4 °F 62.6 °F 30.09 in Calm   3.0 mph 45% 0.00 in WeatherDisplay:10.37 W/m2 FEW
13:55 86.5 °F 63.3 °F 30.09 in Calm   2.0 mph 46% 0.00 in WeatherDisplay:10.37 W/m2 FEW
14:00 87.0 °F 64.9 °F 30.09 in Calm   2.0 mph 48% 0.00 in WeatherDisplay:10.37 W/m2 FEW
14:05 87.4 °F 63.5 °F 30.09 in Calm   2.0 mph 45% 0.00 in WeatherDisplay:10.37 W/m2 FEW
14:10 87.3 °F 64.6 °F 30.08 in Calm   1.0 mph 47% 0.00 in WeatherDisplay:10.37 W/m2 FEW
14:15 87.9 °F 65.1 °F 30.08 in Calm   1.0 mph 47% 0.00 in WeatherDisplay:10.37 W/m2 FEW
14:20 87.9 °F 65.2 °F 30.08 in Calm   1.0 mph 47% 0.00 in WeatherDisplay:10.37 W/m2 FEW
14:25 87.4 °F 63.5 °F 30.08 in NNE 1.0 mph 3.0 mph 45% 0.00 in WeatherDisplay:10.37 W/m2 FEW
14:30 86.6 °F 63.4 °F 30.08 in Calm   2.0 mph 46% 0.00 in WeatherDisplay:10.37 W/m2 FEW
14:35 85.7 °F 61.9 °F 30.08 in West 1.0 mph 5.0 mph 45% 0.00 in WeatherDisplay:10.37 W/m2 FEW
14:40 85.1 °F 64.4 °F 30.08 in Calm   1.0 mph 50% 0.00 in WeatherDisplay:10.37 W/m2 FEW
14:45 85.1 °F 63.2 °F 30.07 in Calm   1.0 mph 48% 0.00 in WeatherDisplay:10.37 W/m2 FEW
14:55 84.3 °F 64.2 °F 30.07 in Calm   2.0 mph 51% 0.00 in WeatherDisplay:10.37 W/m2 FEW
15:00 84.0 °F 64.5 °F 30.07 in Calm     52% 0.00 in WeatherDisplay:10.37 W/m2 FEW
15:10 83.3 °F 63.3 °F 30.06 in Calm   1.0 mph 51% 0.00 in WeatherDisplay:10.37 W/m2 FEW
15:15 83.0 °F 64.1 °F 30.06 in Calm     53% 0.00 in WeatherDisplay:10.37 W/m2 FEW
15:20 82.8 °F 64.5 °F 30.06 in Calm     54% 0.00 in WeatherDisplay:10.37 W/m2 SCT
15:25 82.5 °F 64.2 °F 30.06 in Calm   3.0 mph 54% 0.00 in WeatherDisplay:10.37 W/m2 SCT
15:30 82.6 °F 64.2 °F 30.06 in West 1.0 mph 2.0 mph 54% 0.00 in WeatherDisplay:10.37 W/m2 SCT
15:35 82.9 °F 65.1 °F 30.05 in Calm   1.0 mph 55% 0.00 in WeatherDisplay:10.37 W/m2 SCT
15:40 83.3 °F 64.9 °F 30.05 in WNW 1.0 mph 5.0 mph 54% 0.00 in WeatherDisplay:10.37 W/m2 SCT
15:45 83.3 °F 64.4 °F 30.05 in Calm     53% 0.00 in WeatherDisplay:10.37 W/m2 SCT
15:50 83.3 °F 65.4 °F 30.05 in Calm     55% 0.00 in WeatherDisplay:10.37 W/m2 SCT
15:55 83.3 °F 64.4 °F 30.05 in Calm   1.0 mph 53% 0.00 in WeatherDisplay:10.37 W/m2 SCT
16:00 82.9 °F 65.1 °F 30.05 in Calm   1.0 mph 55% 0.00 in WeatherDisplay:10.37 W/m2 SCT
16:10 82.1 °F 64.8 °F 30.05 in Calm     56% 0.00 in WeatherDisplay:10.37 W/m2 SCT
16:15 81.9 °F 65.7 °F 30.04 in Calm     58% 0.00 in WeatherDisplay:10.37 W/m2 SCT
16:20 81.9 °F 66.6 °F 30.04 in Calm     60% 0.00 in WeatherDisplay:10.37 W/m2 BKN
16:25 81.9 °F 66.2 °F 30.04 in Calm     59% 0.00 in WeatherDisplay:10.37 W/m2 BKN
16:30 82.1 °F 64.3 °F 30.04 in Calm   1.0 mph 55% 0.00 in WeatherDisplay:10.37 W/m2 BKN
16:35 82.3 °F 65.0 °F 30.04 in Calm   1.0 mph 56% 0.00 in WeatherDisplay:10.37 W/m2 BKN
16:40 82.5 °F 65.2 °F 30.04 in SE 1.0 mph 3.0 mph 56% 0.00 in WeatherDisplay:10.37 W/m2 BKN
16:45 82.6 °F 64.3 °F 30.03 in Calm   3.0 mph 54% 0.00 in WeatherDisplay:10.37 W/m2 BKN
16:50 82.4 °F 65.6 °F 30.03 in Calm   1.0 mph 57% 0.00 in WeatherDisplay:10.37 W/m2 BKN
16:55 82.1 °F 65.4 °F 30.03 in Calm   1.0 mph 57% 0.00 in WeatherDisplay:10.37 W/m2 BKN
17:00 82.0 °F 64.2 °F 30.03 in Calm   1.0 mph 55% 0.00 in WeatherDisplay:10.37 W/m2 BKN
17:10 82.2 °F 65.0 °F 30.03 in Calm     56% 0.00 in WeatherDisplay:10.37 W/m2 BKN
17:15 82.3 °F 65.0 °F 30.03 in Calm   2.0 mph 56% 0.00 in WeatherDisplay:10.37 W/m2 BKN
17:20 82.3 °F 65.0 °F 30.03 in Calm   1.0 mph 56% 0.00 in WeatherDisplay:10.37 W/m2 BKN
17:25 82.2 °F 64.9 °F 30.03 in Calm   1.0 mph 56% 0.00 in WeatherDisplay:10.37 W/m2 BKN
17:30 82.2 °F 64.4 °F 30.02 in WSW 1.0 mph 2.0 mph 55% 0.00 in WeatherDisplay:10.37 W/m2 BKN
17:40 82.0 °F 65.8 °F 30.03 in Calm   1.0 mph 58% 0.00 in WeatherDisplay:10.37 W/m2 BKN
17:45 81.7 °F 65.5 °F 30.03 in Calm   1.0 mph 58% 0.00 in WeatherDisplay:10.37 W/m2 BKN
17:50 81.5 °F 66.3 °F 30.03 in Calm   1.0 mph 60% 0.00 in WeatherDisplay:10.37 W/m2 BKN
17:55 81.2 °F 66.0 °F 30.03 in Calm   1.0 mph 60% 0.00 in WeatherDisplay:10.37 W/m2 BKN
18:00 81.0 °F 65.3 °F 30.03 in Calm     59% 0.00 in WeatherDisplay:10.37 W/m2 BKN
18:05 81.0 °F 65.3 °F 30.03 in Calm     59% 0.00 in WeatherDisplay:10.37 W/m2 BKN
18:10 80.8 °F 65.6 °F 30.03 in Calm     60% 0.00 in WeatherDisplay:10.37 W/m2 BKN
18:15 80.7 °F 65.5 °F 30.02 in Calm     60% 0.00 in WeatherDisplay:10.37 W/m2 BKN
18:20 80.6 °F 65.4 °F 30.02 in Calm     60% 0.00 in WeatherDisplay:10.37 W/m2 SCT
18:25 80.4 °F 66.2 °F 30.02 in Calm     62% 0.00 in WeatherDisplay:10.37 W/m2 SCT
18:30 80.1 °F 65.4 °F 30.02 in Calm     61% 0.00 in WeatherDisplay:10.37 W/m2 SCT
18:35 80.0 °F 65.8 °F 30.02 in Calm     62% 0.00 in WeatherDisplay:10.37 W/m2 SCT
18:40 79.8 °F 66.1 °F 30.02 in Calm     63% 0.00 in WeatherDisplay:10.37 W/m2 SCT
18:45 79.4 °F 66.2 °F 30.02 in Calm     64% 0.00 in WeatherDisplay:10.37 W/m2 SCT
18:50 79.2 °F 66.4 °F 30.02 in Calm     65% 0.00 in WeatherDisplay:10.37 W/m2 SCT
18:55 78.9 °F 66.1 °F 30.02 in Calm     65% 0.00 in WeatherDisplay:10.37 W/m2 SCT
19:00 78.7 °F 66.8 °F 30.02 in Calm     67% 0.00 in WeatherDisplay:10.37 W/m2 SCT
19:05 78.5 °F 66.6 °F 30.01 in Calm     67% 0.00 in WeatherDisplay:10.37 W/m2 SCT
19:10 78.3 °F 66.4 °F 30.01 in Calm     67% 0.00 in WeatherDisplay:10.37 W/m2 SCT
19:15 78.1 °F 66.3 °F 30.02 in Calm     67% 0.00 in WeatherDisplay:10.37 W/m2 SCT
19:20 78.0 °F 66.6 °F 30.01 in Calm     68% 0.00 in WeatherDisplay:10.37 W/m2 BKN
19:25 77.7 °F 66.3 °F 30.01 in Calm     68% 0.00 in WeatherDisplay:10.37 W/m2 BKN
19:30 77.5 °F 66.1 °F 30.01 in Calm     68% 0.00 in WeatherDisplay:10.37 W/m2 BKN
19:40 77.0 °F 66.5 °F 30.01 in Calm     70% 0.00 in WeatherDisplay:10.37 W/m2 BKN
19:45 76.7 °F 66.2 °F 30.01 in Calm     70% 0.00 in WeatherDisplay:10.37 W/m2 BKN
19:50 76.5 °F 66.0 °F 30.00 in Calm     70% 0.00 in WeatherDisplay:10.37 W/m2 BKN
19:55 76.2 °F 66.1 °F 30.01 in Calm     71% 0.00 in WeatherDisplay:10.37 W/m2 BKN
20:00 76.0 °F 65.9 °F 30.01 in Calm     71% 0.00 in WeatherDisplay:10.37 W/m2 BKN
20:10 75.5 °F 65.8 °F 30.01 in Calm     72% 0.00 in WeatherDisplay:10.37 W/m2 BKN
20:15 75.3 °F 66.0 °F 30.01 in Calm     73% 0.00 in WeatherDisplay:10.37 W/m2 BKN
20:20 75.1 °F 65.9 °F 30.01 in Calm     73% 0.00 in WeatherDisplay:10.37 W/m2 BKN
20:25 74.9 °F 66.1 °F 30.00 in Calm     74% 0.00 in WeatherDisplay:10.37 W/m2 BKN
20:30 74.7 °F 65.9 °F 30.00 in Calm     74% 0.00 in WeatherDisplay:10.37 W/m2 BKN
20:35 74.4 °F 65.6 °F 30.01 in Calm     74% 0.00 in WeatherDisplay:10.37 W/m2 BKN
20:40 74.2 °F 65.8 °F 30.01 in Calm     75% 0.00 in WeatherDisplay:10.37 W/m2 BKN
20:45 74.0 °F 65.6 °F 30.01 in Calm     75% 0.00 in WeatherDisplay:10.37 W/m2 BKN
20:50 73.8 °F 65.4 °F 30.01 in Calm     75% 0.00 in WeatherDisplay:10.37 W/m2 BKN
20:55 73.6 °F 65.5 °F 30.01 in Calm     76% 0.00 in WeatherDisplay:10.37 W/m2 BKN
21:00 73.3 °F 65.3 °F 30.01 in Calm     76% 0.00 in WeatherDisplay:10.37 W/m2 BKN
21:10 73.0 °F 65.8 °F 30.01 in Calm     78% 0.00 in WeatherDisplay:10.37 W/m2 BKN
21:15 72.8 °F 65.2 °F 30.01 in Calm     77% 0.00 in WeatherDisplay:10.37 W/m2 BKN
21:20 72.6 °F 65.3 °F 30.01 in Calm     78% 0.00 in WeatherDisplay:10.37 W/m2 SCT
21:25 72.5 °F 65.2 °F 30.01 in Calm     78% 0.00 in WeatherDisplay:10.37 W/m2 SCT
21:30 72.3 °F 65.4 °F 30.01 in Calm     79% 0.00 in WeatherDisplay:10.37 W/m2 SCT
21:40 72.0 °F 65.1 °F 30.01 in Calm     79% 0.00 in WeatherDisplay:10.37 W/m2 SCT
21:45 71.8 °F 65.0 °F 30.01 in Calm     79% 0.00 in WeatherDisplay:10.37 W/m2 SCT
21:50 71.8 °F 65.3 °F 30.01 in Calm     80% 0.00 in WeatherDisplay:10.37 W/m2 SCT
21:55 71.6 °F 65.1 °F 30.01 in Calm     80% 0.00 in WeatherDisplay:10.37 W/m2 SCT
22:00 71.5 °F 65.4 °F 30.01 in Calm     81% 0.00 in WeatherDisplay:10.37 W/m2 SCT
22:05 71.4 °F 65.3 °F 30.02 in Calm     81% 0.00 in WeatherDisplay:10.37 W/m2 SCT
22:10 71.3 °F 65.2 °F 30.02 in Calm     81% 0.00 in WeatherDisplay:10.37 W/m2 SCT
22:15 71.2 °F 65.1 °F 30.02 in Calm     81% 0.00 in WeatherDisplay:10.37 W/m2 SCT
22:20 71.1 °F 65.3 °F 30.02 in Calm     82% 0.00 in WeatherDisplay:10.37 W/m2 FEW
22:25 71.1 °F 65.3 °F 30.01 in Calm     82% 0.00 in WeatherDisplay:10.37 W/m2 FEW
22:30 71.0 °F 65.2 °F 30.01 in Calm     82% 0.00 in WeatherDisplay:10.37 W/m2 FEW
22:40 70.8 °F 65.4 °F 30.01 in Calm     83% 0.00 in WeatherDisplay:10.37 W/m2 FEW
22:45 70.8 °F 65.3 °F 30.01 in Calm     83% 0.00 in WeatherDisplay:10.37 W/m2 FEW
22:50 70.7 °F 65.3 °F 30.01 in Calm     83% 0.00 in WeatherDisplay:10.37 W/m2 FEW
22:55 70.6 °F 65.2 °F 30.01 in Calm     83% 0.00 in WeatherDisplay:10.37 W/m2 FEW
23:00 70.6 °F 65.2 °F 30.02 in Calm     83% 0.00 in WeatherDisplay:10.37 W/m2 FEW
23:05 70.5 °F 65.1 °F 30.02 in Calm     83% 0.00 in WeatherDisplay:10.37 W/m2 FEW
23:10 70.5 °F 65.1 °F 30.02 in Calm     83% 0.00 in WeatherDisplay:10.37 W/m2 FEW
23:15 70.4 °F 65.0 °F 30.01 in Calm     83% 0.00 in WeatherDisplay:10.37 W/m2 FEW
23:20 70.4 °F 65.0 °F 30.01 in Calm     83% 0.00 in WeatherDisplay:10.37 W/m2 CLR
23:30 70.4 °F 65.0 °F 30.01 in Calm     83% 0.00 in WeatherDisplay:10.37 W/m2 CLR
23:40 70.4 °F 65.0 °F 30.01 in Calm     83% 0.00 in WeatherDisplay:10.37 W/m2 CLR
23:45 70.4 °F 65.3 °F 30.01 in Calm     84% 0.00 in WeatherDisplay:10.37 W/m2 CLR
23:50 70.4 °F 65.0 °F 30.01 in Calm     83% 0.00 in WeatherDisplay:10.37 W/m2 CLR
23:55 70.3 °F 64.9 °F 30.01 in Calm     83% 0.00 in WeatherDisplay:10.37 W/m2 CLR
Piedmont Bend
Compliments of Weather Underground - 4 mb